Terminal Aerodrome Forecast
Issued by NWS

Home | Current Version | Previous Version | Text Only | Print | Product List | Glossary On
Versions: 1 2 3 4 5 6 7 8 9 10 11 12 13 14 15 16 17
000
FTUS43 KIND 252300
TAFLAF
TAF
KLAF 252332Z 2600/2624 21008G18KT P6SM BKN040
     FM260100 20007KT P6SM OVC035
     FM260500 19005KT 3SM BR OVC015
     FM260700 20006KT 3SM BR OVC007
      TEMPO 2608/2612 3SM -DZ
     FM261500 20009G19KT P6SM BKN025
     FM261900 21012G22KT P6SM VCSH BKN035
      AMD LTD TO CLD VIS AND WIND 2601/2613=

USA.gov is the U.S. government's official web portal to all federal, state and local government web resources and services.